createdAt,value
2022-09-21T00:00:25.889Z,1.93
2022-09-21T00:02:57.050Z,2.70
2022-09-21T00:05:25.176Z,3.00
2022-09-21T00:07:52.838Z,2.53
2022-09-21T00:10:22.274Z,3.87
2022-09-21T00:12:49.740Z,3.00
2022-09-21T00:15:20.725Z,2.53
2022-09-21T00:17:51.627Z,3.10
2022-09-21T00:20:20.764Z,2.33
2022-09-21T00:22:52.166Z,3.70
2022-09-21T00:25:21.413Z,3.27
2022-09-21T00:27:51.491Z,5.90
2022-09-21T00:30:19.017Z,4.80
2022-09-21T00:32:46.383Z,7.60
2022-09-21T00:35:13.905Z,2.70
2022-09-21T00:37:41.292Z,4.20
2022-09-21T00:40:09.306Z,6.57
2022-09-21T00:42:37.292Z,4.57
2022-09-21T00:45:06.595Z,1.77
2022-09-21T00:47:45.718Z,5.33
2022-09-21T00:50:16.665Z,4.80
2022-09-21T00:52:48.879Z,3.30
2022-09-21T00:55:48.266Z,1.87
2022-09-21T00:58:23.119Z,2.90
2022-09-21T01:00:50.317Z,4.30
2022-09-21T01:03:17.427Z,3.60
2022-09-21T01:05:44.645Z,5.27
2022-09-21T01:08:15.857Z,2.20
2022-09-21T01:11:12.246Z,2.20
2022-09-21T01:13:56.571Z,3.53
2022-09-21T01:16:34.475Z,3.13
2022-09-21T01:19:36.597Z,2.60
2022-09-21T01:22:32.380Z,2.60
2022-09-21T01:26:02.781Z,4.10
2022-09-21T01:29:02.211Z,1.63
2022-09-21T01:31:40.253Z,2.40
2022-09-21T01:34:36.481Z,4.37
2022-09-21T01:37:11.941Z,2.13
2022-09-21T01:39:42.508Z,2.50
2022-09-21T01:42:13.204Z,3.70
2022-09-21T01:44:43.202Z,3.13
2022-09-21T01:47:15.302Z,6.00
2022-09-21T01:49:48.245Z,4.83
2022-09-21T01:52:38.386Z,3.17
2022-09-21T01:55:13.458Z,3.57
2022-09-21T01:58:04.395Z,4.20
2022-09-21T02:00:34.628Z,4.53
2022-09-21T02:03:14.058Z,4.27
2022-09-21T02:05:41.884Z,3.93
2022-09-21T02:08:10.431Z,3.07
2022-09-21T02:10:45.973Z,3.80
2022-09-21T02:13:16.761Z,3.97
2022-09-21T02:16:07.133Z,4.60
2022-09-21T02:18:51.062Z,4.73
2022-09-21T02:21:52.316Z,9.80
2022-09-21T02:24:47.267Z,5.50
2022-09-21T02:27:53.175Z,11.90
2022-09-21T02:30:23.859Z,6.33
2022-09-21T02:33:23.804Z,5.20
2022-09-21T02:36:01.391Z,5.47
2022-09-21T02:38:34.619Z,5.40
2022-09-21T02:41:20.421Z,6.10
2022-09-21T02:44:33.751Z,5.30
2022-09-21T02:47:10.795Z,8.20
2022-09-21T02:49:52.259Z,5.30
2022-09-21T02:52:22.247Z,7.27
2022-09-21T02:54:52.512Z,6.87
2022-09-21T02:57:22.383Z,7.67
2022-09-21T02:59:51.183Z,6.07
2022-09-21T03:02:18.310Z,6.93
2022-09-21T03:04:48.407Z,6.60
2022-09-21T03:07:16.832Z,5.83
2022-09-21T03:09:44.245Z,5.97
2022-09-21T03:12:11.617Z,7.13
2022-09-21T03:14:40.993Z,7.20
2022-09-21T03:17:09.012Z,6.70
2022-09-21T03:19:36.348Z,4.43
2022-09-21T03:22:04.318Z,6.33
2022-09-21T03:24:46.382Z,7.60
2022-09-21T03:27:19.917Z,9.60
2022-09-21T03:29:47.712Z,10.17
2022-09-21T03:32:14.871Z,7.20
2022-09-21T03:34:42.106Z,7.90
2022-09-21T03:37:10.866Z,10.70
2022-09-21T03:39:37.989Z,7.40
2022-09-21T03:42:05.216Z,7.13
2022-09-21T03:44:32.309Z,6.60
2022-09-21T03:46:59.548Z,6.53
2022-09-21T03:49:26.748Z,8.73
2022-09-21T03:51:54.669Z,6.20
2022-09-21T03:54:21.724Z,6.67
2022-09-21T03:56:48.895Z,11.57
2022-09-21T03:59:16.068Z,7.30
2022-09-21T04:01:43.884Z,7.23
2022-09-21T04:04:11.058Z,11.60
2022-09-21T04:06:38.397Z,7.30
2022-09-21T04:09:05.670Z,10.80
2022-09-21T04:11:33.370Z,10.97
2022-09-21T04:14:00.529Z,11.07
2022-09-21T04:16:28.440Z,8.67
2022-09-21T04:18:56.026Z,14.17
2022-09-21T04:21:23.416Z,9.70
2022-09-21T04:23:51.133Z,12.27
2022-09-21T04:26:31.767Z,10.10
2022-09-21T04:28:59.658Z,9.40
2022-09-21T04:31:28.710Z,11.10
2022-09-21T04:33:58.407Z,9.53
2022-09-21T04:36:31.067Z,11.50
2022-09-21T04:39:05.154Z,9.67
2022-09-21T04:41:32.656Z,10.50
2022-09-21T04:44:00.195Z,9.40
2022-09-21T04:46:27.357Z,11.17
2022-09-21T04:48:54.587Z,13.23
2022-09-21T04:51:21.927Z,13.07
2022-09-21T04:53:48.976Z,12.43
2022-09-21T04:56:16.842Z,10.20
2022-09-21T04:58:44.413Z,12.07
2022-09-21T05:01:11.973Z,11.80
2022-09-21T05:03:39.545Z,12.50
2022-09-21T05:06:06.917Z,14.23
2022-09-21T05:08:52.569Z,11.97
2022-09-21T05:11:19.827Z,11.50
2022-09-21T05:13:48.007Z,9.57
2022-09-21T05:16:16.852Z,13.73
2022-09-21T05:18:44.958Z,10.80
2022-09-21T05:21:13.863Z,11.57
2022-09-21T05:23:41.634Z,11.90
2022-09-21T05:26:08.667Z,12.30
2022-09-21T05:28:39.875Z,13.50
2022-09-21T05:31:28.312Z,15.93
2022-09-21T05:34:05.759Z,18.47
2022-09-21T05:36:58.355Z,11.50
2022-09-21T05:39:26.094Z,13.47
2022-09-21T05:41:53.841Z,11.17
2022-09-21T05:44:21.809Z,19.50
2022-09-21T05:47:05.022Z,14.37
2022-09-21T05:49:44.087Z,9.60
2022-09-21T05:52:25.102Z,7.20
2022-09-21T05:55:13.268Z,13.07
2022-09-21T05:57:40.342Z,11.20
2022-09-21T06:00:22.252Z,11.60
2022-09-21T06:03:04.261Z,10.40
2022-09-21T06:05:31.351Z,10.93
2022-09-21T06:07:58.498Z,9.70
2022-09-21T06:10:25.804Z,13.40
2022-09-21T06:12:52.879Z,19.77
2022-09-21T06:15:20.056Z,13.30
2022-09-21T06:17:47.137Z,8.90
2022-09-21T06:20:14.312Z,8.60
2022-09-21T06:22:41.431Z,8.87
2022-09-21T06:25:08.698Z,13.70
2022-09-21T06:27:35.858Z,10.53
2022-09-21T06:30:03.313Z,7.57
2022-09-21T06:32:31.303Z,16.10
2022-09-21T06:34:58.382Z,14.03
2022-09-21T06:37:25.465Z,9.70
2022-09-21T06:39:52.510Z,13.13
2022-09-21T06:42:19.662Z,9.60
2022-09-21T06:44:47.249Z,11.00
2022-09-21T06:47:14.413Z,12.00
2022-09-21T06:49:42.694Z,8.50
2022-09-21T06:52:09.950Z,14.67
2022-09-21T06:54:36.997Z,10.63
2022-09-21T06:57:04.171Z,8.13
2022-09-21T06:59:31.533Z,7.20
2022-09-21T07:01:58.875Z,13.17
2022-09-21T07:04:26.113Z,10.13
2022-09-21T07:06:53.248Z,10.70
2022-09-21T07:12:08.067Z,9.80
2022-09-21T07:14:35.218Z,10.87
2022-09-21T07:17:02.493Z,10.67
2022-09-21T07:19:29.576Z,15.13
2022-09-21T07:21:56.689Z,13.30
2022-09-21T07:24:23.846Z,11.93
2022-09-21T07:26:50.975Z,11.83
2022-09-21T07:29:18.029Z,8.60
2022-09-21T07:31:45.790Z,7.43
2022-09-21T07:34:12.907Z,12.00
2022-09-21T07:36:40.508Z,11.47
2022-09-21T07:39:10.304Z,9.30
2022-09-21T07:41:37.677Z,7.13
2022-09-21T07:44:05.475Z,7.60
2022-09-21T07:46:32.650Z,10.43
2022-09-21T07:48:59.853Z,12.60
2022-09-21T07:51:27.086Z,9.03
2022-09-21T07:53:59.349Z,13.77
2022-09-21T07:56:26.624Z,9.90
2022-09-21T07:59:06.122Z,8.00
2022-09-21T08:01:39.456Z,8.10
2022-09-21T08:04:09.684Z,10.20
2022-09-21T08:06:40.111Z,7.40
2022-09-21T08:09:08.791Z,7.30
2022-09-21T08:11:37.463Z,8.80
2022-09-21T08:14:05.100Z,6.70
2022-09-21T08:16:34.086Z,8.07
2022-09-21T08:19:02.284Z,6.63
2022-09-21T08:21:29.581Z,11.03
2022-09-21T08:23:57.037Z,6.50
2022-09-21T08:26:24.816Z,8.33
2022-09-21T08:28:53.812Z,9.50
2022-09-21T08:31:24.236Z,6.20
2022-09-21T08:33:52.832Z,9.23
2022-09-21T08:36:20.136Z,6.43
2022-09-21T08:38:48.414Z,8.47
2022-09-21T08:41:22.627Z,8.27
2022-09-21T08:43:55.872Z,4.17
2022-09-21T08:46:26.563Z,4.30
2022-09-21T08:49:14.748Z,4.93
2022-09-21T08:51:57.083Z,6.40
2022-09-21T08:54:56.430Z,8.20
2022-09-21T08:57:30.139Z,4.53
2022-09-21T08:59:59.305Z,3.43
2022-09-21T09:03:08.686Z,9.80
2022-09-21T09:06:00.294Z,7.60
2022-09-21T09:08:45.627Z,7.60
2022-09-21T09:11:24.799Z,3.90
2022-09-21T09:14:27.983Z,5.70
2022-09-21T09:17:20.078Z,3.93
2022-09-21T09:19:58.066Z,6.87
2022-09-21T09:22:41.068Z,4.43
2022-09-21T09:25:24.944Z,5.60
2022-09-21T09:27:59.745Z,6.73
2022-09-21T09:30:30.827Z,2.97
2022-09-21T09:33:06.746Z,4.27
2022-09-21T09:35:41.452Z,2.80
2022-09-21T09:38:34.897Z,2.83
2022-09-21T09:41:13.874Z,5.23
2022-09-21T09:44:08.517Z,2.60
2022-09-21T09:47:28.046Z,6.30
2022-09-21T09:50:13.485Z,2.80
2022-09-21T09:52:41.360Z,4.53
2022-09-21T09:55:41.132Z,3.63
2022-09-21T09:58:25.415Z,6.63
2022-09-21T10:00:55.324Z,4.07
2022-09-21T10:03:26.076Z,6.27
2022-09-21T10:05:54.053Z,2.27
2022-09-21T10:08:39.347Z,2.27
2022-09-21T10:11:06.656Z,5.40
2022-09-21T10:13:36.673Z,4.60
2022-09-21T10:16:18.335Z,2.80
2022-09-21T10:18:52.682Z,3.23
2022-09-21T10:21:33.064Z,5.90
2022-09-21T10:24:25.568Z,3.23
2022-09-21T10:26:57.838Z,3.80
2022-09-21T10:29:25.490Z,2.80
2022-09-21T10:32:04.175Z,3.17
2022-09-21T10:34:34.518Z,5.73
2022-09-21T10:37:29.498Z,3.67
2022-09-21T10:39:57.256Z,3.20
2022-09-21T10:42:24.535Z,1.30
2022-09-21T10:45:07.171Z,1.77
2022-09-21T10:48:01.889Z,1.80
2022-09-21T10:50:49.240Z,4.47
2022-09-21T10:53:30.569Z,1.07
2022-09-21T10:56:16.475Z,5.00
2022-09-21T10:59:12.721Z,2.80
2022-09-21T11:01:49.773Z,4.23
2022-09-21T11:04:43.713Z,6.37
2022-09-21T11:07:25.452Z,4.93
2022-09-21T11:10:15.247Z,3.10
2022-09-21T11:13:20.897Z,2.60
2022-09-21T11:16:23.329Z,2.40
2022-09-21T11:19:32.545Z,3.33
2022-09-21T11:22:25.715Z,2.47
2022-09-21T11:25:36.729Z,2.27
2022-09-21T11:28:13.473Z,2.30
2022-09-21T11:31:11.948Z,1.00
2022-09-21T11:34:22.479Z,1.30
2022-09-21T11:37:01.725Z,2.83
2022-09-21T11:39:54.331Z,1.70
2022-09-21T11:42:40.658Z,1.43
2022-09-21T11:45:28.874Z,1.40
2022-09-21T11:48:30.192Z,1.53
2022-09-21T11:51:49.758Z,3.03
2022-09-21T11:55:05.195Z,1.50
2022-09-21T11:57:55.197Z,3.83
2022-09-21T12:00:25.085Z,1.00
2022-09-21T12:03:26.253Z,6.60
2022-09-21T12:06:59.879Z,2.30
2022-09-21T12:09:30.639Z,4.17
2022-09-21T12:12:10.762Z,4.17
2022-09-21T12:15:11.537Z,2.83
2022-09-21T12:17:51.113Z,4.10
2022-09-21T12:20:24.823Z,1.63
2022-09-21T12:23:00.372Z,3.27
2022-09-21T12:25:41.735Z,3.87
2022-09-21T12:28:27.930Z,3.50
2022-09-21T12:31:26.912Z,3.07
2022-09-21T12:34:13.160Z,3.23
2022-09-21T12:36:47.651Z,1.40
2022-09-21T12:39:39.649Z,1.13
2022-09-21T12:42:40.883Z,7.67
2022-09-21T12:45:23.113Z,3.67
2022-09-21T12:47:59.308Z,1.53
2022-09-21T12:50:39.927Z,1.90
2022-09-21T12:53:11.353Z,0.93
2022-09-21T12:55:53.133Z,1.00
2022-09-21T12:58:38.502Z,1.33
2022-09-21T13:01:21.233Z,1.43
2022-09-21T13:04:43.312Z,4.00
2022-09-21T13:07:19.255Z,2.87
2022-09-21T13:09:47.650Z,3.53
2022-09-21T13:12:18.141Z,3.13
2022-09-21T13:14:50.636Z,2.60
2022-09-21T13:17:29.155Z,1.17
2022-09-21T13:20:17.175Z,5.60
2022-09-21T13:22:46.198Z,2.30
2022-09-21T13:25:28.162Z,4.80
2022-09-21T13:28:24.187Z,3.23
2022-09-21T13:31:45.597Z,2.13
2022-09-21T13:34:25.068Z,2.60
2022-09-21T13:37:19.571Z,2.80
2022-09-21T13:40:13.120Z,3.80
2022-09-21T13:42:48.915Z,2.53
2022-09-21T13:45:17.892Z,1.90
2022-09-21T13:47:47.933Z,1.60
2022-09-21T13:50:39.671Z,2.90
2022-09-21T13:53:19.570Z,3.33
2022-09-21T13:55:56.993Z,2.07
2022-09-21T13:58:33.954Z,4.60
2022-09-21T14:01:09.943Z,1.30
2022-09-21T14:03:58.082Z,1.20
2022-09-21T14:06:32.678Z,1.50
2022-09-21T14:09:09.055Z,2.00
2022-09-21T14:11:45.182Z,1.43
2022-09-21T14:14:12.348Z,3.73
2022-09-21T14:16:39.575Z,1.87
2022-09-21T14:19:18.663Z,4.20
2022-09-21T14:22:04.456Z,1.00
2022-09-21T14:24:38.343Z,4.27
2022-09-21T14:27:36.403Z,2.00
2022-09-21T14:30:21.590Z,2.17
2022-09-21T14:33:00.974Z,1.17
2022-09-21T14:35:37.769Z,3.13
2022-09-21T14:38:37.926Z,3.43
2022-09-21T14:41:08.140Z,4.00
2022-09-21T14:43:37.831Z,2.13
2022-09-21T14:46:36.218Z,4.03
2022-09-21T14:49:16.536Z,2.33
2022-09-21T14:52:33.285Z,1.33
2022-09-21T14:55:19.169Z,1.50
2022-09-21T14:58:31.435Z,1.90
2022-09-21T15:01:34.478Z,6.03
2022-09-21T15:04:30.489Z,1.93
2022-09-21T15:07:45.093Z,2.40
2022-09-21T15:10:56.360Z,1.13
2022-09-21T15:14:07.195Z,3.10
2022-09-21T15:16:39.705Z,3.43
2022-09-21T15:19:19.207Z,1.27
2022-09-21T15:21:55.335Z,2.00
2022-09-21T15:24:34.315Z,3.63
2022-09-21T15:27:10.215Z,2.73
2022-09-21T15:29:38.370Z,1.57
2022-09-21T15:32:06.942Z,4.50
2022-09-21T15:34:34.040Z,3.00
2022-09-21T15:37:17.059Z,4.83
2022-09-21T15:39:44.439Z,5.73
2022-09-21T15:42:19.988Z,2.70
2022-09-21T15:44:50.622Z,3.77
2022-09-21T15:47:24.126Z,1.97
2022-09-21T15:49:53.154Z,2.80
2022-09-21T15:52:34.835Z,1.37
2022-09-21T15:55:21.562Z,2.33
2022-09-21T15:57:56.910Z,2.10
2022-09-21T16:00:28.724Z,1.33
2022-09-21T16:03:19.580Z,2.37
2022-09-21T16:05:51.420Z,3.93
2022-09-21T16:08:30.539Z,1.60
2022-09-21T16:11:23.294Z,1.87
2022-09-21T16:14:35.931Z,2.80
2022-09-21T16:17:12.344Z,3.80
2022-09-21T16:19:50.977Z,5.53
2022-09-21T16:22:32.095Z,2.30
2022-09-21T16:25:01.731Z,3.50
2022-09-21T16:27:32.101Z,3.37
2022-09-21T16:30:01.461Z,4.53
2022-09-21T16:32:34.193Z,4.60
2022-09-21T16:35:29.245Z,6.20
2022-09-21T16:37:59.077Z,9.27
2022-09-21T16:40:28.309Z,5.67
2022-09-21T16:42:56.727Z,5.10
2022-09-21T16:45:32.486Z,3.60
2022-09-21T16:48:00.074Z,4.90
2022-09-21T16:50:27.148Z,4.10
2022-09-21T16:52:54.348Z,5.43
2022-09-21T16:55:26.831Z,2.63
2022-09-21T16:57:56.176Z,8.50
2022-09-21T17:00:23.794Z,4.40
2022-09-21T17:02:51.102Z,5.37
2022-09-21T17:05:19.418Z,7.00
2022-09-21T17:08:15.765Z,4.77
2022-09-21T17:10:51.957Z,4.70
2022-09-21T17:13:28.156Z,3.67
2022-09-21T17:15:55.311Z,3.90
2022-09-21T17:18:22.350Z,8.00
2022-09-21T17:20:52.538Z,4.30
2022-09-21T17:23:20.869Z,7.10
2022-09-21T17:25:49.668Z,8.93
2022-09-21T17:28:26.133Z,4.03
2022-09-21T17:30:57.116Z,6.30
2022-09-21T17:33:25.465Z,9.83
2022-09-21T17:35:55.736Z,7.10
2022-09-21T17:38:22.887Z,8.13
2022-09-21T17:40:50.674Z,6.23
2022-09-21T17:43:58.270Z,7.20
2022-09-21T17:46:43.341Z,11.00
2022-09-21T17:49:11.957Z,8.13
2022-09-21T17:51:58.537Z,7.83
2022-09-21T17:54:27.627Z,5.93
2022-09-21T17:57:00.027Z,10.00
2022-09-21T17:59:33.828Z,8.30
2022-09-21T18:02:02.883Z,9.67
2022-09-21T18:04:34.942Z,5.30
2022-09-21T18:07:03.447Z,7.43
2022-09-21T18:09:30.844Z,6.10
2022-09-21T18:12:06.912Z,7.50
2022-09-21T18:15:27.398Z,3.83
2022-09-21T18:18:14.926Z,4.43
2022-09-21T18:21:02.254Z,8.20
2022-09-21T18:23:45.635Z,4.00
2022-09-21T18:26:15.525Z,4.30
2022-09-21T18:28:46.569Z,12.60
2022-09-21T18:31:40.247Z,8.57
2022-09-21T18:34:55.462Z,5.93
2022-09-21T18:37:55.271Z,4.20
2022-09-21T18:40:33.554Z,7.33
2022-09-21T18:43:41.278Z,5.13
2022-09-21T18:46:17.864Z,6.23
2022-09-21T18:49:23.236Z,8.30
2022-09-21T18:52:10.971Z,5.53
2022-09-21T18:54:39.564Z,12.23
2022-09-21T18:57:14.175Z,5.83
2022-09-21T18:59:42.606Z,12.23
2022-09-21T19:02:16.566Z,6.83
2022-09-21T19:04:50.323Z,6.10
2022-09-21T19:07:41.392Z,5.70
2022-09-21T19:10:21.644Z,8.20
2022-09-21T19:13:02.221Z,8.77
2022-09-21T19:16:01.948Z,10.93
2022-09-21T19:19:15.822Z,9.03
2022-09-21T19:21:52.621Z,5.67
2022-09-21T19:24:42.744Z,6.83
2022-09-21T19:27:39.406Z,7.33
2022-09-21T19:30:12.935Z,6.43
2022-09-21T19:33:00.134Z,10.23
2022-09-21T19:35:34.349Z,8.53
2022-09-21T19:38:03.994Z,4.37
2022-09-21T19:40:35.266Z,6.67
2022-09-21T19:43:31.402Z,6.37
2022-09-21T19:46:27.568Z,18.80
2022-09-21T19:49:08.946Z,10.73
2022-09-21T19:51:42.991Z,7.40
2022-09-21T19:54:35.058Z,10.80
2022-09-21T19:57:30.701Z,6.27
2022-09-21T19:59:58.846Z,6.70
2022-09-21T20:03:05.782Z,7.10
2022-09-21T20:06:08.901Z,10.80
2022-09-21T20:09:07.798Z,11.00
2022-09-21T20:12:06.973Z,12.10
2022-09-21T20:14:49.416Z,9.30
2022-09-21T20:17:30.400Z,8.63
2022-09-21T20:20:08.574Z,11.50
2022-09-21T20:22:41.326Z,7.70
2022-09-21T20:25:28.006Z,8.93
2022-09-21T20:27:57.276Z,7.60
2022-09-21T20:30:32.760Z,11.60
2022-09-21T20:33:07.611Z,7.13
2022-09-21T20:35:35.201Z,12.17
2022-09-21T20:38:03.331Z,9.50
2022-09-21T20:40:32.105Z,6.37
2022-09-21T20:43:01.254Z,6.50
2022-09-21T20:45:29.848Z,9.73
2022-09-21T20:48:15.808Z,7.77
2022-09-21T20:50:49.103Z,9.90
2022-09-21T20:53:17.169Z,5.33
2022-09-21T20:55:57.405Z,6.83
2022-09-21T20:58:25.242Z,6.43
2022-09-21T21:00:57.949Z,13.57
2022-09-21T21:03:26.196Z,5.47
2022-09-21T21:05:53.518Z,7.70
2022-09-21T21:08:20.542Z,11.47
2022-09-21T21:10:47.742Z,6.30
2022-09-21T21:13:14.757Z,6.03
2022-09-21T21:15:41.919Z,5.07
2022-09-21T21:18:12.366Z,4.67
2022-09-21T21:20:41.009Z,6.50
2022-09-21T21:23:08.388Z,6.60
2022-09-21T21:25:35.972Z,7.10
2022-09-21T21:28:03.676Z,20.23
2022-09-21T21:30:31.526Z,10.93
2022-09-21T21:32:58.601Z,8.40
2022-09-21T21:35:25.999Z,8.63
2022-09-21T21:37:53.335Z,8.63
2022-09-21T21:40:21.210Z,8.47
2022-09-21T21:42:48.551Z,8.20
2022-09-21T21:45:15.837Z,7.90
2022-09-21T21:47:43.005Z,15.93
2022-09-21T21:50:11.307Z,10.67
2022-09-21T21:52:39.142Z,10.43
2022-09-21T21:55:07.557Z,12.03
2022-09-21T21:57:34.954Z,13.80
2022-09-21T22:00:02.548Z,36.07
2022-09-21T22:02:32.621Z,14.00
2022-09-21T22:04:59.893Z,23.03
2022-09-21T22:07:27.391Z,25.73
2022-09-21T22:09:54.630Z,27.43
2022-09-21T22:12:22.186Z,15.80
2022-09-21T22:14:49.614Z,11.67
2022-09-21T22:17:16.880Z,10.40
2022-09-21T22:19:44.048Z,14.07
2022-09-21T22:22:11.179Z,13.13
2022-09-21T22:24:38.256Z,10.80
2022-09-21T22:27:05.405Z,7.60
2022-09-21T22:29:32.651Z,11.00
2022-09-21T22:32:00.615Z,11.67
2022-09-21T22:34:34.572Z,6.43
2022-09-21T22:37:01.848Z,7.37
2022-09-21T22:39:29.006Z,8.80
2022-09-21T22:41:57.385Z,24.23
2022-09-21T22:44:24.626Z,14.93
2022-09-21T22:46:51.712Z,10.07
2022-09-21T22:49:18.746Z,5.73
2022-09-21T22:51:45.892Z,7.33
2022-09-21T22:54:13.061Z,6.10
2022-09-21T22:56:40.233Z,7.33
2022-09-21T22:59:08.443Z,4.83
2022-09-21T23:01:39.458Z,5.23
2022-09-21T23:04:12.081Z,4.53
2022-09-21T23:06:45.314Z,8.70
2022-09-21T23:09:19.695Z,7.63
2022-09-21T23:11:53.359Z,5.27
2022-09-21T23:14:21.950Z,5.13
2022-09-21T23:16:49.113Z,8.83
2022-09-21T23:19:16.280Z,9.50
2022-09-21T23:21:49.571Z,3.87
2022-09-21T23:24:17.561Z,3.10
2022-09-21T23:26:45.636Z,9.30
2022-09-21T23:29:15.382Z,7.27
2022-09-21T23:31:45.469Z,8.23
2022-09-21T23:34:14.534Z,7.43
2022-09-21T23:36:43.445Z,5.90
2022-09-21T23:39:14.050Z,4.33
2022-09-21T23:41:41.530Z,4.13
2022-09-21T23:44:09.107Z,4.80
2022-09-21T23:46:38.756Z,6.33
2022-09-21T23:49:06.410Z,4.13
2022-09-21T23:51:34.623Z,5.50
2022-09-21T23:54:01.998Z,5.07
2022-09-21T23:56:30.059Z,4.10
2022-09-21T23:58:58.228Z,9.27
